Winthrop, WA (98862)

7:54 AM PDT on October 30, 2014 (GMT -0700)
Lower Studhorse | Change Station
CLOSE
Current Station
Personal Weather Station
Location: Winthrop, WA
Elevation: 2087 ft
Nearby Weather Stations

Elev 2087 ft 48.48 °N, 120.17 °W | Updated 5 seconds ago

Mostly Cloudy
Mostly Cloudy
43.9 °F
Feels Like 44 °F
N
0.0
Wind Variable Wind from SW
Gusts 0.0 mph

Today
High -- | Low -- °F
--% Chance of Precip.
Yesterday
High -- | Low -- °F
Precip. -- in
7:43 AM 5:44 PM
Waxing Crescent, 44% visible
Pressure 30.13 in
Visibility 10.0 miles
Clouds Overcast 6000 ft
Windchill 44 °F
Dew Point 43 °F
Humidity 98%
Rainfall 0.05 in
Snow Depth Not available.
UV 0 out of 12
Pollen .30 out of 12
Air Quality Not available.
Flu Activity Not available.
METAR KOMK 301353Z AUTO 00000KT 10SM OVC060 08/07 A3011 RMK AO2 SLP201 T00780067

More Conditions Fewer Conditions

Pressure 30.13 in
Visibility 10.0 miles
Clouds Overcast 6000 ft
Windchill 44 °F
Dew Point 43 °F
Humidity 98%
Rainfall 0.05 in
Snow Depth Not available.
UV 0 out of 12
Pollen .30 out of 12
Air Quality Not available.
Flu Activity Not available.
METAR KOMK 301353Z AUTO 00000KT 10SM OVC060 08/07 A3011 RMK AO2 SLP201 T00780067

More Conditions Fewer Conditions

10-Day Weather Forecast

Almanac

Astronomy

Oct. 30, 2014 Rise Set
Actual Time
Civil Twilight
Nautical Twilight
Astronomical Twilight
Moon
Length of Visible Light
Length of Day
Tomorrow will be .
, % of the Moon is Illuminated

Today's Extremes

State Highs State Lows

Community

WunderPhotos

Upload Photos

1,766,379 photos uploaded!

WunderBlogs® & News

Nearby

Air Quality

  Air Quality AQ Index Pollutant
Not available.

Snow Depth

Station Depth Elevation

Earthquake Activity

City Distance Mag. Time & Date
Minimum magnitude displayed is 2.5.

Coastal Water Temperatures

Place Temperature

Nearby Weather Stations